createdAt,value
2022-09-12T00:07:50.099Z,69.78
2022-09-12T00:17:51.777Z,69.85
2022-09-12T00:27:53.683Z,70.24
2022-09-12T00:37:55.681Z,69.42
2022-09-12T00:48:03.768Z,70.31
2022-09-12T00:58:13.715Z,70.21
2022-09-12T01:08:16.949Z,69.72
2022-09-12T01:18:36.146Z,70.43
2022-09-12T01:29:02.339Z,70.29
2022-09-12T01:39:09.568Z,69.99
2022-09-12T01:49:25.556Z,69.25
2022-09-12T01:59:43.467Z,70.36
2022-09-12T02:09:57.086Z,69.40
2022-09-12T02:20:06.788Z,70.21
2022-09-12T02:30:10.083Z,69.47
2022-09-12T02:40:13.819Z,69.28
2022-09-12T02:50:16.055Z,70.49
2022-09-12T03:00:17.947Z,69.99
2022-09-12T03:10:37.602Z,69.88
2022-09-12T03:20:49.820Z,69.69
2022-09-12T03:30:53.519Z,70.27
2022-09-12T03:40:55.411Z,70.21
2022-09-12T03:51:00.482Z,71.59
2022-09-12T04:01:13.571Z,70.38
2022-09-12T04:11:16.185Z,71.06
2022-09-12T04:21:20.227Z,70.48
2022-09-12T04:31:23.581Z,71.13
2022-09-12T04:41:28.617Z,71.07
2022-09-12T04:51:35.899Z,70.16
2022-09-12T05:01:37.640Z,70.98
2022-09-12T05:12:03.297Z,71.07
2022-09-12T05:22:05.022Z,71.33
2022-09-12T05:32:06.858Z,71.39
2022-09-12T05:42:09.224Z,73.78
2022-09-12T05:52:11.030Z,73.21
2022-09-12T06:02:12.976Z,75.14
2022-09-12T06:12:14.909Z,75.57
2022-09-12T06:22:18.585Z,75.92
2022-09-12T06:32:20.640Z,76.40
2022-09-12T06:42:22.500Z,73.79
2022-09-12T06:52:31.305Z,74.69
2022-09-12T07:02:33.027Z,75.92
2022-09-12T07:12:34.835Z,76.62
2022-09-12T07:22:36.481Z,76.36
2022-09-12T07:32:38.460Z,73.49
2022-09-12T07:42:40.183Z,71.65
2022-09-12T07:52:41.911Z,72.23
2022-09-12T08:02:43.755Z,72.08
2022-09-12T08:12:45.362Z,70.27
2022-09-12T08:22:47.101Z,69.84
2022-09-12T08:32:48.855Z,69.16
2022-09-12T08:43:10.316Z,68.15
2022-09-12T08:53:21.201Z,66.87
2022-09-12T09:04:04.999Z,66.48
2022-09-12T09:14:49.083Z,64.58
2022-09-12T09:25:02.662Z,63.84
2022-09-12T09:35:36.313Z,62.13
2022-09-12T09:45:43.426Z,60.00
2022-09-12T09:55:49.155Z,58.50
2022-09-12T10:05:53.528Z,58.05
2022-09-12T10:16:02.241Z,56.01
2022-09-12T10:26:10.979Z,54.55
2022-09-12T10:36:13.603Z,53.59
2022-09-12T10:46:15.707Z,53.24
2022-09-12T10:56:23.017Z,51.81
2022-09-12T11:06:37.049Z,51.01
2022-09-12T11:17:05.168Z,49.58
2022-09-12T11:27:18.939Z,49.62
2022-09-12T11:37:36.103Z,48.15
2022-09-12T11:47:38.569Z,47.94
2022-09-12T11:57:48.224Z,45.25
2022-09-12T12:07:57.673Z,44.91
2022-09-12T12:18:02.515Z,44.09
2022-09-12T12:28:06.577Z,44.75
2022-09-12T12:38:26.665Z,44.52
2022-09-12T12:48:31.957Z,40.99
2022-09-12T12:58:37.574Z,39.37
2022-09-12T13:08:54.036Z,44.01
2022-09-12T13:18:57.914Z,44.72
2022-09-12T13:29:20.413Z,43.72
2022-09-12T13:39:29.208Z,43.71
2022-09-12T13:49:37.323Z,44.08
2022-09-12T13:59:40.413Z,43.39
2022-09-12T14:09:47.138Z,43.17
2022-09-12T14:19:49.383Z,42.77
2022-09-12T14:29:56.702Z,42.30
2022-09-12T14:39:58.904Z,41.83
2022-09-12T14:50:02.220Z,42.63
2022-09-12T15:00:12.776Z,41.51
2022-09-12T15:10:22.973Z,40.17
2022-09-12T15:20:25.031Z,40.37
2022-09-12T15:30:26.612Z,39.73
2022-09-12T15:40:28.231Z,39.00
2022-09-12T15:50:30.610Z,38.31
2022-09-12T16:00:32.376Z,37.44
2022-09-12T16:10:35.479Z,37.47
2022-09-12T16:20:40.132Z,37.18
2022-09-12T16:30:44.242Z,38.16
2022-09-12T16:40:45.757Z,37.55
2022-09-12T16:50:56.559Z,38.04
2022-09-12T17:01:07.561Z,38.28
2022-09-12T17:11:15.797Z,38.61
2022-09-12T17:21:18.334Z,39.05
2022-09-12T17:31:20.611Z,39.82
2022-09-12T17:41:29.974Z,40.47
2022-09-12T17:51:33.151Z,40.34
2022-09-12T18:01:53.915Z,41.18
2022-09-12T18:11:58.884Z,41.39
2022-09-12T18:22:01.618Z,42.52
2022-09-12T18:32:06.267Z,42.95
2022-09-12T18:42:12.497Z,43.62
2022-09-12T18:52:19.065Z,44.71
2022-09-12T19:02:21.035Z,44.83
2022-09-12T19:12:23.283Z,47.38
2022-09-12T19:22:24.981Z,46.53
2022-09-12T19:32:27.914Z,47.53
2022-09-12T19:42:29.818Z,47.91
2022-09-12T19:52:31.759Z,48.70
2022-09-12T20:02:33.804Z,48.60
2022-09-12T20:12:35.951Z,49.50
2022-09-12T20:22:40.151Z,49.14
2022-09-12T20:32:44.562Z,49.57
2022-09-12T20:42:46.549Z,49.67
2022-09-12T20:52:48.200Z,50.25
2022-09-12T21:02:51.480Z,51.67
2022-09-12T21:12:53.904Z,54.32
2022-09-12T21:22:55.697Z,54.23
2022-09-12T21:32:57.543Z,52.94
2022-09-12T21:42:59.218Z,51.91
2022-09-12T21:53:00.939Z,52.59
2022-09-12T22:03:04.877Z,52.47
2022-09-12T22:13:06.726Z,52.77
2022-09-12T22:23:31.211Z,53.09
2022-09-12T22:33:32.832Z,53.25
2022-09-12T22:43:35.643Z,52.80
2022-09-12T22:53:37.579Z,52.75
2022-09-12T23:03:40.013Z,52.40
2022-09-12T23:13:44.559Z,51.99
2022-09-12T23:23:46.599Z,53.83
2022-09-12T23:33:49.783Z,53.16
2022-09-12T23:43:51.765Z,53.84
2022-09-12T23:53:53.557Z,54.23
